createdAt,value
2018-02-11T00:03:40.233Z,26.53
2018-02-11T00:08:45.464Z,26.47
2018-02-11T00:13:51.656Z,28.17
2018-02-11T00:18:58.002Z,30.37
2018-02-11T00:29:36.303Z,27.40
2018-02-11T00:34:43.551Z,25.20
2018-02-11T00:39:48.036Z,28.40
2018-02-11T00:44:53.975Z,25.80
2018-02-11T00:49:58.582Z,25.37
2018-02-11T00:55:02.624Z,27.37
2018-02-11T01:00:10.672Z,25.87
2018-02-11T01:05:24.925Z,25.90
2018-02-11T01:10:35.205Z,23.07
2018-02-11T01:15:42.869Z,25.00
2018-02-11T01:20:45.446Z,24.00
2018-02-11T01:25:55.625Z,20.33
2018-02-11T01:31:07.227Z,21.70
2018-02-11T01:36:17.621Z,21.00
2018-02-11T01:41:23.507Z,22.37
2018-02-11T01:52:12.849Z,36.30
2018-02-11T01:57:21.530Z,22.87
2018-02-11T02:02:25.287Z,23.53
2018-02-11T02:07:39.870Z,21.40
2018-02-11T02:12:51.004Z,19.37
2018-02-11T02:17:55.193Z,21.23
2018-02-11T02:23:00.324Z,21.73
2018-02-11T02:28:05.967Z,20.23
2018-02-11T02:38:23.478Z,22.83
2018-02-11T02:43:30.430Z,20.07
2018-02-11T02:48:38.054Z,21.57
2018-02-11T02:59:05.385Z,19.73
2018-02-11T03:04:12.612Z,20.50
2018-02-11T03:09:20.343Z,23.23
2018-02-11T03:14:25.863Z,21.60
2018-02-11T03:19:31.087Z,22.30
2018-02-11T03:24:42.934Z,20.27
2018-02-11T03:29:51.119Z,19.20
2018-02-11T03:34:58.821Z,24.60
2018-02-11T03:40:04.971Z,21.57
2018-02-11T03:45:09.505Z,20.40
2018-02-11T03:50:19.183Z,22.20
2018-02-11T03:55:25.073Z,23.90
2018-02-11T04:00:45.629Z,20.67
2018-02-11T04:05:53.201Z,20.43
2018-02-11T04:10:59.752Z,23.20
2018-02-11T04:16:08.309Z,18.77
2018-02-11T04:21:14.427Z,21.77
2018-02-11T04:26:22.824Z,21.27
2018-02-11T04:31:30.640Z,21.07
2018-02-11T04:36:36.474Z,20.20
2018-02-11T04:41:41.017Z,20.50
2018-02-11T04:46:49.700Z,20.20
2018-02-11T04:57:06.627Z,15.63
2018-02-11T05:02:10.799Z,19.90
2018-02-11T05:07:17.059Z,20.20
2018-02-11T05:12:22.329Z,20.50
2018-02-11T05:17:25.846Z,17.30
2018-02-11T05:22:29.879Z,18.80
2018-02-11T05:27:33.871Z,18.73
2018-02-11T05:32:38.769Z,16.37
2018-02-11T05:37:46.300Z,16.50
2018-02-11T05:42:51.884Z,18.87
2018-02-11T05:47:55.244Z,18.40
2018-02-11T05:53:03.765Z,17.70
2018-02-11T05:58:18.318Z,16.00
2018-02-11T06:03:25.209Z,17.80
2018-02-11T06:08:29.762Z,14.77
2018-02-11T06:13:36.550Z,17.17
2018-02-11T06:18:50.407Z,15.53
2018-02-11T06:23:54.746Z,12.83
2018-02-11T06:29:00.056Z,14.47
2018-02-11T06:34:09.687Z,13.53
2018-02-11T06:39:17.183Z,14.27
2018-02-11T06:44:20.858Z,14.90
2018-02-11T06:49:24.053Z,12.00
2018-02-11T06:54:30.546Z,12.10
2018-02-11T06:59:37.253Z,11.80
2018-02-11T07:04:51.747Z,13.97
2018-02-11T07:09:56.664Z,13.80
2018-02-11T07:15:04.502Z,12.70
2018-02-11T07:20:11.363Z,12.87
2018-02-11T07:25:16.245Z,11.33
2018-02-11T07:30:26.227Z,11.70
2018-02-11T07:35:30.422Z,11.20
2018-02-11T07:40:42.584Z,11.47
2018-02-11T07:45:48.021Z,12.00
2018-02-11T07:50:57.912Z,12.07
2018-02-11T07:56:03.684Z,10.50
2018-02-11T08:01:13.732Z,10.87
2018-02-11T08:06:20.855Z,12.23
2018-02-11T08:11:27.070Z,10.70
2018-02-11T08:16:33.886Z,10.77
2018-02-11T08:26:50.660Z,10.70
2018-02-11T08:31:59.797Z,10.27
2018-02-11T08:47:33.149Z,8.30
2018-02-11T08:52:41.398Z,8.70
2018-02-11T08:57:53.984Z,8.80
2018-02-11T09:03:01.437Z,9.60
2018-02-11T09:08:10.503Z,8.00
2018-02-11T09:18:24.530Z,5.53
2018-02-11T09:23:30.127Z,8.63
2018-02-11T09:28:49.799Z,7.03
2018-02-11T09:34:14.673Z,8.30
2018-02-11T09:44:38.196Z,8.03
2018-02-11T09:49:45.692Z,9.07
2018-02-11T10:06:27.179Z,7.37
2018-02-11T10:11:38.786Z,7.70
2018-02-11T10:22:31.639Z,8.03
2018-02-11T10:40:11.421Z,7.30
2018-02-11T10:45:15.054Z,6.93
2018-02-11T10:50:35.252Z,8.83
2018-02-11T10:55:49.176Z,8.27
2018-02-11T11:00:57.110Z,8.10
2018-02-11T11:06:13.261Z,7.30
2018-02-11T11:12:02.261Z,8.77
2018-02-11T11:17:14.044Z,7.50
2018-02-11T11:46:17.547Z,7.27
2018-02-11T12:03:55.000Z,10.97
2018-02-11T12:09:22.570Z,9.40
2018-02-11T12:20:25.064Z,7.13
2018-02-11T12:25:42.637Z,8.50
2018-02-11T12:36:49.120Z,8.77
2018-02-11T13:14:21.125Z,8.13
2018-02-11T13:24:54.771Z,12.00
2018-02-11T13:30:04.304Z,9.03
2018-02-11T13:35:21.598Z,9.67
2018-02-11T13:40:41.661Z,8.80
2018-02-11T13:51:13.321Z,9.30
2018-02-11T14:01:36.663Z,10.33
2018-02-11T14:12:22.566Z,8.73
2018-02-11T14:17:31.752Z,8.77
2018-02-11T14:22:38.464Z,8.10
2018-02-11T14:27:51.722Z,8.97
2018-02-11T14:33:05.064Z,9.50
2018-02-11T14:38:31.509Z,10.23
2018-02-11T14:49:04.752Z,10.20
2018-02-11T15:18:37.021Z,10.73
2018-02-11T15:35:47.692Z,11.10
2018-02-11T15:46:28.325Z,13.70
2018-02-11T15:51:42.046Z,13.67
2018-02-11T15:57:27.242Z,13.10
2018-02-11T16:08:22.391Z,20.70
2018-02-11T16:19:08.919Z,14.47
2018-02-11T16:25:16.579Z,17.13
2018-02-11T16:35:56.942Z,14.00
2018-02-11T16:41:09.359Z,12.80
2018-02-11T16:46:17.436Z,12.77
2018-02-11T16:51:30.804Z,12.67
2018-02-11T17:02:00.995Z,13.60
2018-02-11T17:07:30.944Z,11.27
2018-02-11T17:51:09.872Z,16.00
2018-02-11T17:56:22.540Z,14.77
2018-02-11T18:01:32.702Z,15.47
2018-02-11T18:06:42.186Z,16.40
2018-02-11T18:11:51.001Z,15.83
2018-02-11T18:17:06.525Z,16.90
2018-02-11T18:22:09.130Z,14.77
2018-02-11T18:27:28.514Z,16.53
2018-02-11T18:46:19.479Z,17.87
2018-02-11T18:51:38.421Z,17.93
2018-02-11T19:02:14.249Z,17.30
2018-02-11T19:07:29.922Z,19.30
2018-02-11T19:22:10.548Z,28.30
2018-02-11T19:27:22.429Z,21.90
2018-02-11T19:32:41.319Z,19.80
2018-02-11T19:37:55.985Z,16.90
2018-02-11T19:43:01.721Z,18.50
2018-02-11T19:48:08.512Z,18.67
2018-02-11T19:58:38.560Z,18.97
2018-02-11T20:03:52.478Z,18.00
2018-02-11T20:30:08.443Z,31.30
2018-02-11T20:46:16.780Z,16.47
2018-02-11T20:51:29.705Z,15.23
2018-02-11T20:56:42.047Z,18.67
2018-02-11T21:07:43.738Z,23.87
2018-02-11T21:13:02.846Z,14.73
2018-02-11T21:18:15.205Z,13.00
2018-02-11T21:23:32.470Z,12.93
2018-02-11T21:28:38.965Z,13.80
2018-02-11T21:33:55.676Z,12.27
2018-02-11T21:39:10.962Z,12.03
2018-02-11T21:44:21.128Z,12.63
2018-02-11T21:49:26.147Z,12.47
2018-02-11T21:54:39.414Z,11.83
2018-02-11T21:59:47.085Z,11.37
2018-02-11T22:04:57.229Z,11.67
2018-02-11T22:10:05.737Z,11.53
2018-02-11T22:20:55.187Z,11.40
2018-02-11T22:26:20.601Z,11.60
2018-02-11T22:31:37.678Z,11.30
2018-02-11T22:36:45.003Z,10.80
2018-02-11T22:47:50.564Z,11.70
2018-02-11T22:54:04.908Z,11.67
2018-02-11T22:59:23.509Z,11.97
2018-02-11T23:05:09.150Z,12.90
2018-02-11T23:10:30.361Z,9.53
2018-02-11T23:32:14.781Z,16.50
2018-02-11T23:37:34.894Z,9.10
2018-02-11T23:42:44.895Z,9.53
2018-02-11T23:47:53.280Z,8.67
2018-02-11T23:53:12.506Z,9.03
